Time;durP1;ratioP1;P1;durP2;ratioP2;P2;SDS_P1;SDS_P2;PMS_P1;PMS_P2;Temp;Humidity;BMP_temperature;BMP_pressure;BME280_temperature;BME280_humidity;BME280_pressure;Samples;Min_cycle;Max_cycle;Signal;HPM_P1;HPM_P2
2022/06/04 00:01:00;;;;;;;11.07;8.87;;;13.30;99.90;;;;;;4973141;28;20712;-86
2022/06/04 00:03:29;;;;;;;13.27;9.10;;;13.20;99.90;;;;;;4972087;28;20300;-92
2022/06/04 00:05:57;;;;;;;10.93;9.07;;;13.20;99.90;;;;;;4971780;28;20208;-84
2022/06/04 00:08:25;;;;;;;9.80;8.77;;;13.20;99.90;;;;;;4966680;28;20218;-82
2022/06/04 00:16:25;;;;;;;12.87;9.53;;;13.10;99.90;;;;;;4962170;28;20243;-89
2022/06/04 00:18:54;;;;;;;11.57;8.17;;;13.10;99.90;;;;;;4973541;28;20238;-79
2022/06/04 00:21:22;;;;;;;14.03;9.83;;;13.10;99.90;;;;;;4971697;28;20193;-84
2022/06/04 00:23:50;;;;;;;10.90;9.60;;;13.10;99.90;;;;;;4972055;28;20248;-87
2022/06/04 00:26:18;;;;;;;12.73;8.90;;;13.00;99.90;;;;;;4973384;28;20204;-85
2022/06/04 00:28:46;;;;;;;10.67;9.57;;;13.00;99.90;;;;;;4973072;28;20209;-85
2022/06/04 00:31:14;;;;;;;11.60;9.20;;;13.00;99.90;;;;;;4973224;28;20209;-85
2022/06/04 00:33:41;;;;;;;17.43;10.10;;;13.00;99.90;;;;;;4955439;28;20220;-84
2022/06/04 00:36:10;;;;;;;12.37;9.50;;;13.00;99.90;;;;;;4954893;29;20205;-89
2022/06/04 00:38:37;;;;;;;11.43;9.03;;;13.00;99.90;;;;;;4969051;28;20268;-82
2022/06/04 00:41:26;;;;;;;11.77;9.13;;;13.00;99.90;;;;;;4972264;28;20230;-84
2022/06/04 00:44:26;;;;;;;14.00;9.20;;;12.90;99.90;;;;;;4971376;28;20209;-86
2022/06/04 00:47:13;;;;;;;10.07;8.83;;;12.90;99.90;;;;;;4972505;28;20223;-89
2022/06/04 00:49:40;;;;;;;13.50;8.90;;;12.90;99.90;;;;;;4969188;28;20205;-93
2022/06/04 00:52:12;;;;;;;12.30;8.17;;;12.90;99.90;;;;;;4954554;29;20205;-87
2022/06/04 00:54:39;;;;;;;15.93;8.50;;;12.90;99.90;;;;;;4952650;28;20213;-88
2022/06/04 00:57:33;;;;;;;10.00;8.40;;;12.90;99.90;;;;;;4953553;29;20312;-92
2022/06/04 01:00:07;;;;;;;11.60;8.90;;;12.90;99.90;;;;;;4953774;29;20217;-84
2022/06/04 01:02:45;;;;;;;14.40;8.40;;;12.90;99.90;;;;;;4952771;29;20200;-83
2022/06/04 01:05:24;;;;;;;11.33;8.30;;;12.80;99.90;;;;;;4952562;29;20475;-90
2022/06/04 01:08:11;;;;;;;9.57;8.17;;;12.80;99.90;;;;;;4953862;28;20201;-89
2022/06/04 01:10:49;;;;;;;10.60;8.43;;;12.80;99.90;;;;;;4953371;29;20295;-93
2022/06/04 01:13:33;;;;;;;12.23;8.63;;;12.70;99.90;;;;;;4952012;29;20287;-91
2022/06/04 01:16:04;;;;;;;12.83;9.30;;;12.80;99.90;;;;;;4953509;28;20245;-85
2022/06/04 01:18:42;;;;;;;14.60;9.57;;;12.80;99.90;;;;;;4956311;29;20613;-93
2022/06/04 01:21:18;;;;;;;13.30;10.20;;;12.80;99.90;;;;;;4954293;29;20185;-87
2022/06/04 01:24:29;;;;;;;16.43;10.13;;;12.70;99.90;;;;;;4964595;28;20517;-87
2022/06/04 01:27:15;;;;;;;17.43;10.57;;;12.70;99.90;;;;;;4966492;28;20240;-83
2022/06/04 01:29:50;;;;;;;11.57;9.87;;;12.60;99.90;;;;;;4953310;28;20285;-84
2022/06/04 01:32:23;;;;;;;14.80;9.80;;;12.70;99.90;;;;;;4951522;29;20283;-85
2022/06/04 01:34:57;;;;;;;11.47;9.20;;;12.60;99.90;;;;;;4953208;29;20237;-85
2022/06/04 01:37:29;;;;;;;14.40;9.03;;;12.70;99.90;;;;;;4952420;28;20245;-91
2022/06/04 01:42:47;;;;;;;11.67;9.40;;;12.60;99.90;;;;;;4953677;28;20204;-84
2022/06/04 01:45:19;;;;;;;17.43;9.30;;;12.60;99.90;;;;;;4952848;29;20688;-86
2022/06/04 01:47:48;;;;;;;9.07;8.10;;;12.60;99.90;;;;;;4953172;29;20764;-89
2022/06/04 01:50:20;;;;;;;11.93;8.63;;;12.60;99.90;;;;;;4953248;28;20206;-85
2022/06/04 01:52:49;;;;;;;12.17;8.53;;;12.60;99.90;;;;;;4953821;29;20198;-86
2022/06/04 01:55:21;;;;;;;10.37;8.27;;;12.60;99.90;;;;;;4966736;28;20216;-92
2022/06/04 01:57:55;;;;;;;17.97;7.97;;;12.60;99.90;;;;;;4974131;28;20232;-87
2022/06/04 02:00:26;;;;;;;12.97;7.77;;;12.60;99.90;;;;;;4972123;28;20254;-87
2022/06/04 02:03:06;;;;;;;10.40;7.93;;;12.60;99.90;;;;;;4972256;28;20661;-90
2022/06/04 02:05:38;;;;;;;19.40;8.60;;;12.60;99.90;;;;;;4971054;28;20542;-83
2022/06/04 02:08:08;;;;;;;16.03;9.03;;;12.60;99.90;;;;;;4970395;28;20638;-84
2022/06/04 02:10:40;;;;;;;11.87;8.70;;;12.60;99.90;;;;;;4962898;28;20611;-87
2022/06/04 02:13:12;;;;;;;13.27;8.97;;;12.60;99.90;;;;;;4951328;29;20288;-83
2022/06/04 02:15:44;;;;;;;12.60;9.30;;;12.50;99.90;;;;;;4950504;29;20205;-81
2022/06/04 02:18:13;;;;;;;14.93;8.37;;;12.50;99.90;;;;;;4965685;28;20213;-92
2022/06/04 02:20:39;;;;;;;12.47;8.93;;;12.50;99.90;;;;;;4960298;28;20394;-92
2022/06/04 02:23:07;;;;;;;15.90;9.37;;;12.50;99.90;;;;;;4948786;28;20209;-87
2022/06/04 02:25:34;;;;;;;10.67;9.17;;;12.50;99.90;;;;;;4968848;28;20205;-81
2022/06/04 02:28:02;;;;;;;15.83;9.23;;;12.50;99.90;;;;;;4970124;28;20209;-86
2022/06/04 02:30:40;;;;;;;13.33;8.83;;;12.40;99.90;;;;;;4950422;28;20299;-85
2022/06/04 02:33:14;;;;;;;14.27;9.40;;;12.40;99.90;;;;;;4948955;29;20209;-85
2022/06/04 02:35:46;;;;;;;13.03;8.37;;;12.40;99.90;;;;;;4949131;29;20288;-83
2022/06/04 02:38:19;;;;;;;13.43;9.43;;;12.50;99.90;;;;;;4948970;28;20236;-81
2022/06/04 02:40:52;;;;;;;10.43;8.77;;;12.40;99.90;;;;;;4948826;29;20217;-80
2022/06/04 02:43:24;;;;;;;10.13;9.03;;;12.50;99.90;;;;;;4947627;29;20201;-84
2022/06/04 02:46:00;;;;;;;15.17;9.10;;;12.50;99.90;;;;;;4948387;29;20272;-90
2022/06/04 02:48:33;;;;;;;13.07;9.03;;;12.50;99.90;;;;;;4949794;28;20215;-83
2022/06/04 02:51:07;;;;;;;17.53;9.93;;;12.50;99.90;;;;;;4959618;28;20604;-81
2022/06/04 02:53:35;;;;;;;12.30;9.70;;;12.50;99.90;;;;;;4967941;28;20231;-82
2022/06/04 02:56:07;;;;;;;18.90;9.83;;;12.50;99.90;;;;;;4967356;28;20208;-81
2022/06/04 02:58:35;;;;;;;13.57;8.70;;;12.40;99.90;;;;;;4948960;29;20319;-82
2022/06/04 03:01:05;;;;;;;15.13;9.87;;;12.50;99.90;;;;;;4948269;29;20240;-83
2022/06/04 03:03:32;;;;;;;19.47;9.37;;;12.50;99.90;;;;;;4950949;28;20305;-83
2022/06/04 03:06:02;;;;;;;18.37;10.23;;;12.50;99.90;;;;;;4950068;29;20292;-85
2022/06/04 03:08:32;;;;;;;12.60;9.03;;;12.50;99.90;;;;;;4948352;29;20204;-84
2022/06/04 03:10:59;;;;;;;18.43;10.07;;;12.50;99.90;;;;;;4946979;29;20240;-83
2022/06/04 03:13:26;;;;;;;15.37;9.50;;;12.50;99.90;;;;;;4960582;28;20712;-84
2022/06/04 03:15:54;;;;;;;15.10;8.93;;;12.50;99.90;;;;;;4967320;28;20200;-86
2022/06/04 03:18:22;;;;;;;13.23;9.07;;;12.50;99.90;;;;;;4968152;28;20213;-81
2022/06/04 03:20:49;;;;;;;13.90;8.40;;;12.40;99.90;;;;;;4972542;28;20344;-82
2022/06/04 03:23:16;;;;;;;15.60;9.47;;;12.40;99.90;;;;;;4970787;28;20216;-82
2022/06/04 03:25:43;;;;;;;17.17;9.60;;;12.40;99.90;;;;;;4971604;28;20196;-83
2022/06/04 03:28:10;;;;;;;14.20;8.43;;;12.40;99.90;;;;;;4966842;28;20210;-89
2022/06/04 03:30:38;;;;;;;16.73;9.60;;;12.40;99.90;;;;;;4952055;29;20198;-83
2022/06/04 03:33:06;;;;;;;14.10;9.40;;;12.50;99.90;;;;;;4952346;29;20456;-84
2022/06/04 03:35:35;;;;;;;11.87;8.27;;;12.40;99.90;;;;;;4952309;29;20202;-88
2022/06/04 03:38:02;;;;;;;11.30;8.17;;;12.40;99.90;;;;;;4951916;28;20249;-85
2022/06/04 03:40:29;;;;;;;19.07;9.27;;;12.40;99.90;;;;;;4954405;28;20961;-85
2022/06/04 03:42:56;;;;;;;15.73;8.80;;;12.40;99.90;;;;;;4953808;29;20634;-88
2022/06/04 03:45:24;;;;;;;19.77;9.17;;;12.40;99.90;;;;;;4954691;29;20215;-92
2022/06/04 03:47:51;;;;;;;15.93;8.20;;;12.50;99.90;;;;;;4955467;29;20602;-86
2022/06/04 03:50:18;;;;;;;12.93;8.20;;;12.40;99.90;;;;;;4954088;28;20210;-81
2022/06/04 03:52:49;;;;;;;11.63;8.50;;;12.40;99.90;;;;;;4955763;29;20273;-85
2022/06/04 03:55:17;;;;;;;18.37;9.83;;;12.40;99.90;;;;;;4970539;28;20211;-87
2022/06/04 03:57:48;;;;;;;12.33;9.03;;;12.40;99.90;;;;;;4972732;28;20224;-85
2022/06/04 04:00:20;;;;;;;17.33;9.77;;;12.40;99.90;;;;;;4974108;28;20227;-82
2022/06/04 04:02:50;;;;;;;14.23;8.20;;;12.40;99.90;;;;;;4972190;28;20215;-89
2022/06/04 04:05:20;;;;;;;17.07;8.30;;;12.40;99.90;;;;;;4971702;28;20192;-87
2022/06/04 04:07:49;;;;;;;15.00;8.77;;;12.50;99.90;;;;;;4966144;28;20913;-82
2022/06/04 04:10:18;;;;;;;12.57;8.47;;;12.50;99.90;;;;;;4952640;29;20215;-82
2022/06/04 04:12:45;;;;;;;16.70;9.50;;;12.50;99.90;;;;;;4968771;28;20216;-84
2022/06/04 04:15:14;;;;;;;19.37;9.53;;;12.60;99.90;;;;;;4972463;28;20215;-82
2022/06/04 04:17:42;;;;;;;12.97;8.33;;;12.50;99.90;;;;;;4960527;28;20900;-85
2022/06/04 04:20:12;;;;;;;11.00;7.50;;;12.50;99.90;;;;;;4954091;29;20229;-82
2022/06/04 04:22:39;;;;;;;12.73;7.80;;;12.60;99.90;;;;;;4954249;29;20294;-85
2022/06/04 04:25:09;;;;;;;9.70;7.87;;;12.60;99.90;;;;;;4954992;28;20304;-81
2022/06/04 04:27:37;;;;;;;11.50;7.57;;;12.50;99.90;;;;;;4973110;28;20295;-84
2022/06/04 04:30:05;;;;;;;12.77;7.57;;;12.60;99.90;;;;;;4975352;28;20618;-82
2022/06/04 04:32:33;;;;;;;14.20;8.07;;;12.50;99.90;;;;;;4969863;23;20533;-91
2022/06/04 04:35:00;;;;;;;11.47;7.53;;;12.50;99.90;;;;;;4956916;29;20756;-87
2022/06/04 04:37:27;;;;;;;9.43;7.13;;;12.50;99.90;;;;;;4954476;29;20576;-83
2022/06/04 04:39:54;;;;;;;11.07;7.47;;;12.50;99.90;;;;;;4954848;29;20205;-88
2022/06/04 04:42:23;;;;;;;13.33;7.80;;;12.60;99.90;;;;;;4953552;29;20213;-89
2022/06/04 04:44:51;;;;;;;12.87;7.97;;;12.60;99.90;;;;;;4953801;29;20209;-81
2022/06/04 04:47:18;;;;;;;10.80;7.40;;;12.70;99.90;;;;;;4955248;28;20625;-82
2022/06/04 04:49:45;;;;;;;12.07;6.87;;;12.60;99.90;;;;;;4972771;28;20298;-83
2022/06/04 04:52:12;;;;;;;14.83;7.80;;;12.70;99.90;;;;;;4973227;28;20208;-83
2022/06/04 04:54:39;;;;;;;14.77;7.07;;;12.80;99.90;;;;;;4975010;28;20223;-91
2022/06/04 04:57:06;;;;;;;15.80;7.87;;;12.80;99.90;;;;;;4975000;28;20315;-84
2022/06/04 04:59:35;;;;;;;9.27;6.77;;;12.80;99.90;;;;;;4956788;28;20248;-84
2022/06/04 05:02:02;;;;;;;12.97;7.70;;;12.80;99.90;;;;;;4956000;28;20943;-82
2022/06/04 05:04:29;;;;;;;11.47;7.23;;;12.90;99.90;;;;;;4973389;28;20236;-84
2022/06/04 05:06:55;;;;;;;9.93;6.27;;;12.90;99.90;;;;;;4960620;28;20340;-83
2022/06/04 05:09:22;;;;;;;14.13;6.97;;;13.00;99.90;;;;;;4954371;29;20312;-81
2022/06/04 05:11:49;;;;;;;11.87;7.23;;;13.00;99.90;;;;;;4954652;29;20229;-81
2022/06/04 05:14:17;;;;;;;12.93;7.37;;;13.00;99.90;;;;;;4968121;28;20303;-86
2022/06/04 05:16:45;;;;;;;13.77;6.77;;;12.90;99.90;;;;;;4972939;28;20558;-83
2022/06/04 05:19:13;;;;;;;13.53;7.50;;;12.90;99.90;;;;;;4963196;28;20241;-85
2022/06/04 05:21:43;;;;;;;11.73;6.43;;;12.90;99.90;;;;;;4952189;29;20248;-84
2022/06/04 05:24:17;;;;;;;10.53;7.03;;;13.00;99.90;;;;;;4951796;29;20189;-85
2022/06/04 05:26:44;;;;;;;11.93;7.17;;;12.90;99.90;;;;;;4954408;28;20209;-84
2022/06/04 05:29:10;;;;;;;10.83;7.10;;;13.00;99.90;;;;;;4971763;28;20283;-82
2022/06/04 05:31:38;;;;;;;11.50;6.57;;;13.10;99.90;;;;;;4960497;28;20251;-83
2022/06/04 05:34:07;;;;;;;10.87;6.30;;;13.20;99.90;;;;;;4952811;29;20212;-86
2022/06/04 05:36:35;;;;;;;10.67;6.13;;;13.30;99.90;;;;;;4964929;28;20255;-88
2022/06/04 05:39:02;;;;;;;12.23;6.27;;;13.30;99.90;;;;;;4970764;28;20323;-85
2022/06/04 05:41:29;;;;;;;12.60;7.00;;;13.30;99.90;;;;;;4970787;28;20313;-86
2022/06/04 05:43:59;;;;;;;11.07;5.93;;;13.40;99.90;;;;;;4953452;29;20206;-83
2022/06/04 05:46:26;;;;;;;8.33;5.73;;;13.40;99.90;;;;;;4953600;29;20201;-88
2022/06/04 05:48:53;;;;;;;9.47;5.77;;;13.50;99.90;;;;;;4953756;29;20569;-83
2022/06/04 05:51:23;;;;;;;9.93;6.23;;;13.50;99.90;;;;;;4977296;28;20330;-91
2022/06/04 05:53:51;;;;;;;8.20;5.23;;;13.40;99.90;;;;;;4990557;28;20809;-85
2022/06/04 05:56:25;;;;;;;8.90;5.40;;;13.40;99.90;;;;;;4972271;28;20204;-84
2022/06/04 05:58:53;;;;;;;8.63;5.40;;;13.40;99.90;;;;;;4972696;28;20224;-87
2022/06/04 06:01:22;;;;;;;9.93;5.17;;;13.40;99.90;;;;;;4972075;28;20648;-85
2022/06/04 06:03:50;;;;;;;6.93;4.80;;;13.50;99.90;;;;;;4953452;29;20209;-92
2022/06/04 06:06:19;;;;;;;10.27;5.43;;;13.60;99.90;;;;;;4952424;29;20210;-84
2022/06/04 06:08:47;;;;;;;9.90;5.60;;;13.80;99.90;;;;;;4950530;29;20197;-87
2022/06/04 06:11:16;;;;;;;8.20;5.17;;;14.30;99.90;;;;;;4950742;28;20307;-83
2022/06/04 06:13:44;;;;;;;8.80;4.57;;;14.80;99.90;;;;;;4953684;28;20288;-83
2022/06/04 06:16:17;;;;;;;5.37;4.73;;;15.20;99.90;;;;;;4970926;28;20327;-85
2022/06/04 06:18:44;;;;;;;7.40;4.70;;;15.80;99.90;;;;;;4972386;28;20287;-83
2022/06/04 06:21:13;;;;;;;5.33;4.00;;;15.80;99.90;;;;;;4967072;28;20537;-84
2022/06/04 06:23:41;;;;;;;7.80;4.47;;;15.70;99.90;;;;;;4953095;29;20812;-82
2022/06/04 06:26:12;;;;;;;7.27;4.30;;;15.40;99.90;;;;;;4952728;29;20288;-85
2022/06/04 06:28:40;;;;;;;9.23;4.53;;;15.40;99.90;;;;;;4966140;28;20288;-86
2022/06/04 06:31:09;;;;;;;7.53;3.73;;;15.30;99.90;;;;;;4971681;28;20287;-86
2022/06/04 06:33:36;;;;;;;5.37;3.90;;;15.20;99.90;;;;;;4970009;28;20192;-86
2022/06/04 06:36:05;;;;;;;7.33;4.00;;;15.00;99.90;;;;;;4987373;28;20522;-87
2022/06/04 06:38:32;;;;;;;5.30;3.53;;;14.90;99.90;;;;;;4986659;28;20303;-85
2022/06/04 06:41:00;;;;;;;5.07;3.80;;;14.90;99.90;;;;;;4969981;28;20236;-81
2022/06/04 06:43:33;;;;;;;7.30;4.43;;;14.80;99.90;;;;;;4971759;28;20200;-84
2022/06/04 06:46:04;;;;;;;5.93;3.47;;;14.80;99.90;;;;;;4971830;28;20205;-85
2022/06/04 06:48:31;;;;;;;9.13;4.47;;;14.80;99.90;;;;;;4973129;28;20676;-85
2022/06/04 06:50:58;;;;;;;4.30;3.50;;;14.70;99.90;;;;;;4972594;28;20295;-87
2022/06/04 06:53:25;;;;;;;8.43;3.93;;;14.60;99.90;;;;;;4970050;28;20212;-84
2022/06/04 06:55:53;;;;;;;6.87;4.73;;;14.60;99.90;;;;;;4973613;28;20907;-88
2022/06/04 06:58:20;;;;;;;6.37;3.47;;;14.50;99.90;;;;;;4974220;28;20299;-86
2022/06/04 07:00:52;;;;;;;4.43;3.80;;;14.50;99.90;;;;;;4990673;28;20238;-90
2022/06/04 07:03:19;;;;;;;6.10;3.63;;;14.40;99.90;;;;;;4993497;28;20211;-85
2022/06/04 07:05:53;;;;;;;9.80;4.73;;;14.40;99.90;;;;;;4994453;28;20203;-85
2022/06/04 07:08:21;;;;;;;5.83;4.07;;;14.40;99.90;;;;;;4990294;28;20207;-82
2022/06/04 07:10:48;;;;;;;6.10;3.97;;;14.30;99.90;;;;;;4958643;28;20212;-82
2022/06/04 07:13:15;;;;;;;6.17;4.30;;;14.30;99.90;;;;;;4953702;29;20288;-86
2022/06/04 07:15:43;;;;;;;6.37;4.00;;;14.30;99.90;;;;;;4953668;29;20523;-81
2022/06/04 07:18:13;;;;;;;5.30;4.23;;;14.30;99.90;;;;;;4957168;28;20220;-80
2022/06/04 07:20:42;;;;;;;7.70;4.10;;;14.30;99.90;;;;;;4930443;29;20209;-82
2022/06/04 07:23:10;;;;;;;9.27;4.60;;;14.30;99.90;;;;;;4951848;28;20224;-87
2022/06/04 07:25:40;;;;;;;4.40;3.80;;;14.30;99.90;;;;;;4953647;28;20417;-83
2022/06/04 07:28:07;;;;;;;8.73;4.67;;;14.30;99.90;;;;;;4971767;28;20303;-84
2022/06/04 07:30:34;;;;;;;5.60;3.97;;;14.30;99.90;;;;;;4972399;28;20289;-82
2022/06/04 07:33:01;;;;;;;5.90;4.10;;;14.20;99.90;;;;;;4968579;28;20648;-85
2022/06/04 07:35:30;;;;;;;7.37;4.00;;;14.30;99.90;;;;;;4950123;29;20569;-82
2022/06/04 07:37:57;;;;;;;5.20;4.00;;;14.40;99.90;;;;;;4952494;29;20192;-85
2022/06/04 07:40:24;;;;;;;6.30;4.30;;;14.40;99.90;;;;;;4951492;28;20551;-88
2022/06/04 07:42:50;;;;;;;6.70;4.37;;;14.50;99.90;;;;;;4951556;29;20217;-84
2022/06/04 07:45:17;;;;;;;6.00;4.37;;;14.60;99.90;;;;;;4950935;29;20629;-82
2022/06/04 07:47:45;;;;;;;6.77;4.37;;;14.60;99.90;;;;;;4986812;28;20707;-87
2022/06/04 07:50:14;;;;;;;5.23;3.70;;;14.50;99.90;;;;;;4992653;28;20199;-89
2022/06/04 07:52:42;;;;;;;5.30;4.37;;;14.60;99.90;;;;;;4983302;28;20254;-82
2022/06/04 07:55:10;;;;;;;6.97;4.13;;;14.60;99.90;;;;;;4954281;29;20201;-91
2022/06/04 07:57:38;;;;;;;6.40;3.87;;;14.60;99.90;;;;;;4958514;28;20244;-86
2022/06/04 08:00:07;;;;;;;6.20;4.73;;;14.60;99.90;;;;;;4972212;28;20588;-83
2022/06/04 08:02:34;;;;;;;4.93;3.90;;;14.70;99.90;;;;;;4971862;28;20796;-82
2022/06/04 08:05:01;;;;;;;6.00;4.20;;;14.80;99.90;;;;;;4977076;28;20299;-79
2022/06/04 08:07:28;;;;;;;5.07;3.97;;;14.80;99.90;;;;;;4988136;28;20206;-80
2022/06/04 08:09:56;;;;;;;5.70;4.13;;;14.80;99.90;;;;;;4988043;28;20247;-80
2022/06/04 08:12:23;;;;;;;7.73;4.97;;;14.90;99.90;;;;;;4954514;28;20209;-82
2022/06/04 08:14:51;;;;;;;8.93;4.17;;;15.00;99.90;;;;;;4953476;29;20209;-85
2022/06/04 08:17:17;;;;;;;5.27;4.00;;;15.10;99.90;;;;;;4953021;29;20499;-85
2022/06/04 08:19:44;;;;;;;5.50;4.30;;;15.20;99.90;;;;;;4954359;28;20213;-81
2022/06/04 08:22:12;;;;;;;6.70;4.07;;;15.40;99.90;;;;;;4953008;29;20233;-86
2022/06/04 08:24:40;;;;;;;5.63;4.00;;;15.50;99.90;;;;;;4964108;28;20287;-83
2022/06/04 08:27:08;;;;;;;4.80;3.40;;;15.60;99.90;;;;;;4971436;28;20559;-85
2022/06/04 08:29:37;;;;;;;4.53;3.57;;;15.70;99.90;;;;;;4972992;28;20627;-83
2022/06/04 08:32:05;;;;;;;4.90;3.77;;;15.80;99.90;;;;;;4992164;28;20259;-84
2022/06/04 08:34:32;;;;;;;7.77;4.40;;;16.00;99.90;;;;;;4979820;28;20266;-81
2022/06/04 08:37:00;;;;;;;5.43;3.73;;;16.10;99.90;;;;;;4972582;28;20205;-85
2022/06/04 08:39:29;;;;;;;4.30;3.73;;;15.90;99.90;;;;;;4956414;28;20216;-83
2022/06/04 08:42:06;;;;;;;4.50;4.03;;;16.00;99.90;;;;;;4957129;28;20221;-84
2022/06/04 08:44:38;;;;;;;8.83;4.33;;;16.10;99.90;;;;;;4978147;23;20318;-83
2022/06/04 08:47:14;;;;;;;8.05;4.00;;;16.10;99.90;;;;;;4969003;28;20204;-82
2022/06/04 08:49:46;;;;;;;6.77;4.43;;;16.00;99.90;;;;;;4960330;28;20319;-81
2022/06/04 08:52:17;;;;;;;7.20;3.80;;;16.20;99.90;;;;;;4950522;29;20219;-83
2022/06/04 08:57:38;;;;;;;4.10;3.70;;;16.40;99.90;;;;;;4950216;29;20220;-83
2022/06/04 09:00:14;;;;;;;5.47;4.10;;;16.60;99.90;;;;;;4952055;28;20207;-83
2022/06/04 09:03:01;;;;;;;7.80;3.90;;;16.70;99.90;;;;;;4950049;29;20633;-83
2022/06/04 09:05:39;;;;;;;4.22;3.80;;;16.80;99.90;;;;;;4962734;28;20203;-81
2022/06/04 09:08:13;;;;;;;4.35;3.42;;;16.90;99.90;;;;;;4968695;28;20322;-81
2022/06/04 09:10:43;;;;;;;6.70;3.92;;;16.90;99.90;;;;;;4967586;28;20223;-80
2022/06/04 09:13:17;;;;;;;9.60;4.05;;;17.00;99.90;;;;;;4969794;28;20197;-83
2022/06/04 09:15:51;;;;;;;4.68;3.65;;;17.00;99.90;;;;;;4966799;28;20307;-85
2022/06/04 09:18:24;;;;;;;7.55;3.75;;;17.10;99.90;;;;;;4970333;28;20235;-83
2022/06/04 09:20:59;;;;;;;4.30;3.85;;;17.20;99.90;;;;;;4971620;28;20287;-84
2022/06/04 09:23:39;;;;;;;6.40;4.07;;;17.30;99.90;;;;;;4955652;28;20315;-82
2022/06/04 09:26:17;;;;;;;6.53;3.83;;;17.30;99.90;;;;;;4953578;28;20212;-84
2022/06/04 09:28:55;;;;;;;8.43;3.88;;;17.10;99.90;;;;;;4950244;29;20212;-81
2022/06/04 09:31:32;;;;;;;6.47;3.58;;;17.10;99.90;;;;;;4952503;29;20600;-87
2022/06/04 09:34:03;;;;;;;8.33;3.63;;;17.00;99.90;;;;;;4952704;28;20224;-82
2022/06/04 09:36:33;;;;;;;6.97;3.72;;;17.00;99.90;;;;;;4951486;29;20209;-85
2022/06/04 09:39:02;;;;;;;5.22;3.72;;;17.00;99.90;;;;;;4952654;29;20209;-87
2022/06/04 09:41:33;;;;;;;6.68;4.20;;;17.10;99.90;;;;;;4951880;29;20210;-84
2022/06/04 09:44:05;;;;;;;5.78;4.47;;;17.10;99.90;;;;;;4951459;28;20245;-82
2022/06/04 09:46:35;;;;;;;5.82;4.15;;;17.00;99.90;;;;;;4951864;29;20201;-81
2022/06/04 09:49:12;;;;;;;5.30;4.20;;;17.10;99.90;;;;;;4951085;29;20628;-82
2022/06/04 09:51:43;;;;;;;5.63;4.45;;;17.20;99.90;;;;;;4970278;28;20623;-84
2022/06/04 09:54:23;;;;;;;4.75;3.85;;;17.20;99.90;;;;;;4972159;28;20660;-86
2022/06/04 09:56:54;;;;;;;5.00;4.32;;;17.40;99.90;;;;;;4971441;28;20302;-86
2022/06/04 09:59:24;;;;;;;8.25;4.13;;;17.50;99.90;;;;;;4970348;28;20211;-86
2022/06/04 10:01:59;;;;;;;5.25;4.35;;;17.60;99.90;;;;;;4971621;28;20700;-81
2022/06/04 10:04:41;;;;;;;7.65;4.28;;;17.50;99.90;;;;;;4970872;28;20266;-84
2022/06/04 10:07:10;;;;;;;8.38;4.00;;;17.60;99.90;;;;;;4971710;28;20224;-84
2022/06/04 10:09:58;;;;;;;7.20;4.18;;;17.70;99.90;;;;;;4971210;28;20300;-84
2022/06/04 10:15:22;;;;;;;6.70;4.38;;;17.80;99.90;;;;;;4971643;28;20184;-86
2022/06/04 10:18:00;;;;;;;6.82;4.63;;;18.10;99.90;;;;;;4964815;28;20652;-85
2022/06/04 10:20:27;;;;;;;4.55;4.05;;;18.30;99.90;;;;;;4952410;29;20203;-84
2022/06/04 10:22:54;;;;;;;6.20;4.35;;;18.40;99.90;;;;;;4963325;28;20647;-85
2022/06/04 10:25:25;;;;;;;5.22;4.15;;;18.40;99.90;;;;;;4971891;28;20319;-81
2022/06/04 10:28:07;;;;;;;6.97;4.25;;;18.20;99.90;;;;;;4971275;28;20282;-86
2022/06/04 10:30:45;;;;;;;7.30;4.18;;;18.30;99.90;;;;;;4970049;28;20789;-83
2022/06/04 10:33:22;;;;;;;6.03;4.28;;;18.30;99.90;;;;;;4969643;28;20280;-86
2022/06/04 10:36:05;;;;;;;8.70;4.97;;;18.40;99.90;;;;;;4949769;29;20272;-81
2022/06/04 10:38:53;;;;;;;7.57;4.40;;;18.40;99.90;;;;;;4948810;29;20240;-83
2022/06/04 10:41:31;;;;;;;5.38;4.03;;;18.40;99.90;;;;;;4949378;29;20284;-85
2022/06/04 10:44:18;;;;;;;6.72;4.03;;;18.30;99.90;;;;;;4956104;28;20244;-80
2022/06/04 10:46:56;;;;;;;5.57;4.20;;;18.30;99.90;;;;;;4967165;28;20207;-82
2022/06/04 10:49:47;;;;;;;6.25;4.18;;;18.40;99.90;;;;;;4966793;28;20613;-86
2022/06/04 10:52:23;;;;;;;5.38;4.18;;;18.60;99.90;;;;;;4970172;28;20191;-83
2022/06/04 10:54:57;;;;;;;5.07;4.20;;;18.60;99.90;;;;;;4970880;28;20619;-84
2022/06/04 10:57:29;;;;;;;8.77;3.95;;;18.70;99.90;;;;;;4970601;28;20232;-84
2022/06/04 11:00:00;;;;;;;4.45;3.78;;;18.90;99.90;;;;;;4951963;29;20232;-83
2022/06/04 11:02:37;;;;;;;5.57;3.70;;;19.10;99.90;;;;;;4950664;29;20284;-82
2022/06/04 11:05:12;;;;;;;5.15;3.88;;;19.10;99.90;;;;;;4951182;29;20616;-83
2022/06/04 11:07:52;;;;;;;6.45;4.35;;;19.30;99.90;;;;;;4951527;29;20197;-84
2022/06/04 11:10:23;;;;;;;5.35;4.00;;;19.50;99.90;;;;;;4953416;28;20205;-84
2022/06/04 11:12:58;;;;;;;6.13;4.20;;;19.60;99.90;;;;;;4971714;28;20459;-85
2022/06/04 11:15:30;;;;;;;7.22;4.65;;;19.70;99.90;;;;;;4974599;28;20200;-85
2022/06/04 11:18:03;;;;;;;5.05;4.40;;;19.90;99.90;;;;;;4973155;28;20669;-86
2022/06/04 11:20:36;;;;;;;4.82;4.25;;;19.70;99.90;;;;;;4966841;28;20212;-84
2022/06/04 11:23:22;;;;;;;5.78;4.53;;;19.90;99.90;;;;;;4951394;28;20709;-83
2022/06/04 11:25:52;;;;;;;5.93;5.05;;;19.90;99.90;;;;;;4949543;29;20605;-85
2022/06/04 11:28:23;;;;;;;8.55;4.80;;;19.90;99.90;;;;;;4969378;28;20228;-87
2022/06/04 11:30:59;;;;;;;8.52;4.75;;;20.00;99.90;;;;;;4968561;28;20302;-85
2022/06/04 11:33:38;;;;;;;7.82;4.95;;;19.80;99.90;;;;;;4970022;28;20221;-83
2022/06/04 11:36:16;;;;;;;7.88;4.88;;;20.10;99.90;;;;;;4958683;28;20648;-82
2022/06/04 11:39:00;;;;;;;8.27;4.93;;;20.10;99.90;;;;;;4965309;28;20221;-82
2022/06/04 11:41:34;;;;;;;8.40;4.70;;;20.30;99.90;;;;;;4959684;28;20228;-85
2022/06/04 11:44:36;;;;;;;6.30;4.45;;;20.60;99.90;;;;;;4953736;28;20251;-81
2022/06/04 11:47:18;;;;;;;10.43;4.78;;;20.70;99.90;;;;;;4880634;29;20235;-78
2022/06/04 11:49:55;;;;;;;6.72;4.57;;;21.00;99.90;;;;;;4962101;28;20204;-81
2022/06/04 11:52:28;;;;;;;6.65;4.55;;;21.20;99.90;;;;;;4979334;23;20236;-84
2022/06/04 11:55:21;;;;;;;5.90;4.55;;;21.30;99.90;;;;;;4934625;29;20332;-80
2022/06/04 11:58:15;;;;;;;6.65;4.22;;;20.90;99.90;;;;;;4933949;29;20241;-80
2022/06/04 12:00:46;;;;;;;6.65;3.95;;;20.90;99.90;;;;;;4901095;29;20210;-82
2022/06/04 12:03:18;;;;;;;9.10;4.35;;;21.10;99.90;;;;;;4928740;29;20214;-85
2022/06/04 12:05:53;;;;;;;5.90;4.30;;;20.80;99.90;;;;;;4934199;29;20202;-84
2022/06/04 12:08:25;;;;;;;4.68;4.20;;;20.60;99.90;;;;;;4933257;29;20206;-84
2022/06/04 12:11:03;;;;;;;7.30;4.15;;;20.60;99.90;;;;;;4934322;29;20281;-82
2022/06/04 12:13:38;;;;;;;8.70;4.15;;;20.60;99.90;;;;;;4942040;29;20198;-82
2022/06/04 12:16:12;;;;;;;6.35;4.25;;;20.70;99.90;;;;;;4934148;29;20205;-81
2022/06/04 12:18:46;;;;;;;6.82;3.85;;;20.80;99.90;;;;;;4934310;29;20201;-82
2022/06/04 12:24:19;;;;;;;7.78;4.20;;;20.90;99.90;;;;;;4930726;29;20217;-83
2022/06/04 12:26:48;;;;;;;6.97;4.10;;;21.00;99.90;;;;;;4935257;29;20555;-85
2022/06/04 12:29:35;;;;;;;5.93;3.67;;;20.80;99.90;;;;;;4932664;29;20713;-87
2022/06/04 12:32:05;;;;;;;4.70;3.33;;;20.60;99.90;;;;;;4929142;29;20563;-83
2022/06/04 12:34:35;;;;;;;6.18;3.92;;;20.60;99.90;;;;;;4929599;29;20462;-80
2022/06/04 12:37:04;;;;;;;5.10;3.65;;;20.40;99.90;;;;;;4930859;29;20229;-82
2022/06/04 12:39:38;;;;;;;4.57;3.22;;;20.40;99.90;;;;;;4927010;29;20221;-84
2022/06/04 12:42:14;;;;;;;6.80;4.20;;;20.30;99.90;;;;;;4920822;29;20221;-84
2022/06/04 12:44:43;;;;;;;7.45;4.22;;;20.20;99.90;;;;;;4928087;29;20217;-82
2022/06/04 12:47:19;;;;;;;5.18;3.75;;;19.90;99.90;;;;;;4928219;29;20218;-81
2022/06/04 12:49:52;;;;;;;8.75;4.47;;;19.90;99.90;;;;;;4929608;29;20213;-82
2022/06/04 12:52:44;;;;;;;6.85;3.80;;;19.90;99.90;;;;;;4928349;29;20229;-81
2022/06/04 12:55:22;;;;;;;5.43;3.80;;;20.00;99.90;;;;;;4930596;29;20917;-83
2022/06/04 12:57:52;;;;;;;6.13;3.40;;;19.90;99.90;;;;;;4928532;29;20234;-82
2022/06/04 13:00:26;;;;;;;3.95;3.35;;;19.90;99.90;;;;;;4929174;29;20198;-83
2022/06/04 13:03:00;;;;;;;6.57;4.05;;;20.00;99.90;;;;;;4931773;29;20629;-81
2022/06/04 13:05:28;;;;;;;5.85;4.22;;;20.10;99.90;;;;;;4932143;29;20292;-80
2022/06/04 13:08:02;;;;;;;6.82;4.78;;;20.20;99.90;;;;;;4931572;29;20234;-82
2022/06/04 13:10:41;;;;;;;7.00;5.18;;;20.10;99.90;;;;;;4930135;29;20836;-80
2022/06/04 13:13:19;;;;;;;7.43;5.10;;;20.10;99.90;;;;;;4931832;29;20602;-81
2022/06/04 13:15:52;;;;;;;6.95;4.60;;;19.80;99.90;;;;;;4931222;29;20205;-79
2022/06/04 13:18:26;;;;;;;8.85;5.05;;;19.70;99.90;;;;;;4930038;29;20579;-81
2022/06/04 13:20:57;;;;;;;6.43;5.00;;;19.50;99.90;;;;;;4931157;29;20583;-81
2022/06/04 13:23:38;;;;;;;7.18;4.60;;;19.40;99.90;;;;;;4931724;29;20230;-85